createdAt,value
2018-06-15T00:02:28.753Z,19.59
2018-06-15T00:04:58.078Z,19.54
2018-06-15T00:07:27.510Z,19.52
2018-06-15T00:09:57.108Z,19.50
2018-06-15T00:12:27.628Z,19.40
2018-06-15T00:14:57.396Z,19.35
2018-06-15T00:17:27.981Z,19.31
2018-06-15T00:19:57.257Z,19.31
2018-06-15T00:22:26.479Z,19.34
2018-06-15T00:24:55.866Z,19.28
2018-06-15T00:27:25.102Z,19.18
2018-06-15T00:29:55.054Z,19.15
2018-06-15T00:32:24.436Z,19.19
2018-06-15T00:34:54.998Z,19.14
2018-06-15T00:37:24.323Z,19.08
2018-06-15T00:39:53.973Z,19.02
2018-06-15T00:42:23.698Z,19.05
2018-06-15T00:44:53.822Z,19.03
2018-06-15T00:47:24.303Z,19.04
2018-06-15T00:49:53.983Z,19.00
2018-06-15T00:52:23.495Z,19.05
2018-06-15T00:54:53.367Z,19.06
2018-06-15T00:57:47.489Z,19.05
2018-06-15T01:00:17.681Z,19.01
2018-06-15T01:02:47.079Z,19.02
2018-06-15T01:05:16.557Z,19.00
2018-06-15T01:07:46.863Z,19.07
2018-06-15T01:10:39.080Z,19.02
2018-06-15T01:16:17.784Z,19.03
2018-06-15T01:19:01.272Z,18.96
2018-06-15T01:24:44.388Z,19.04
2018-06-15T01:27:13.739Z,18.98
2018-06-15T01:29:43.092Z,18.94
2018-06-15T01:32:12.653Z,18.91
2018-06-15T01:34:42.059Z,18.86
2018-06-15T01:37:12.321Z,18.83
2018-06-15T01:39:46.308Z,18.81
2018-06-15T01:42:15.906Z,18.79
2018-06-15T01:44:45.534Z,18.73
2018-06-15T01:47:15.075Z,18.71
2018-06-15T01:49:44.574Z,18.66
2018-06-15T01:52:14.231Z,18.70
2018-06-15T01:54:44.347Z,18.69
2018-06-15T01:57:14.172Z,18.67
2018-06-15T01:59:43.989Z,18.59
2018-06-15T02:02:13.800Z,18.58
2018-06-15T02:04:45.359Z,18.56
2018-06-15T02:07:16.614Z,18.50
2018-06-15T02:09:48.900Z,18.49
2018-06-15T02:12:29.510Z,18.43
2018-06-15T02:14:59.739Z,18.32
2018-06-15T02:17:29.912Z,18.30
2018-06-15T02:20:04.996Z,18.30
2018-06-15T02:25:31.847Z,18.18
2018-06-15T02:28:01.664Z,18.14
2018-06-15T02:30:31.172Z,18.12
2018-06-15T02:33:02.915Z,18.08
2018-06-15T02:35:32.431Z,18.09
2018-06-15T02:38:02.000Z,18.05
2018-06-15T02:40:31.805Z,17.97
2018-06-15T02:43:01.304Z,17.93
2018-06-15T02:45:31.091Z,17.93
2018-06-15T02:48:02.772Z,17.92
2018-06-15T02:50:32.600Z,17.92
2018-06-15T02:53:02.661Z,17.92
2018-06-15T02:55:32.526Z,17.96
2018-06-15T02:58:02.010Z,18.01
2018-06-15T03:00:31.419Z,18.04
2018-06-15T03:04:33.617Z,18.12
2018-06-15T03:07:05.791Z,18.17
2018-06-15T03:09:36.765Z,18.25
2018-06-15T03:17:26.031Z,18.39
2018-06-15T03:29:11.311Z,18.41
2018-06-15T03:31:40.880Z,18.58
2018-06-15T03:34:10.209Z,18.69
2018-06-15T03:36:39.490Z,18.82
2018-06-15T03:39:10.980Z,18.96
2018-06-15T03:41:40.756Z,19.12
2018-06-15T03:44:10.008Z,19.28
2018-06-15T03:46:47.956Z,19.45
2018-06-15T03:49:17.243Z,19.68
2018-06-15T03:54:55.635Z,20.23
2018-06-15T03:57:25.193Z,20.44
2018-06-15T03:59:54.308Z,20.64
2018-06-15T04:02:23.390Z,20.83
2018-06-15T04:04:52.704Z,21.02
2018-06-15T04:07:22.641Z,21.18
2018-06-15T04:09:51.740Z,21.27
2018-06-15T04:12:21.058Z,21.30
2018-06-15T04:14:50.349Z,21.51
2018-06-15T04:17:19.662Z,21.80
2018-06-15T04:19:49.553Z,21.96
2018-06-15T04:22:19.209Z,22.22
2018-06-15T04:24:48.526Z,22.22
2018-06-15T04:27:17.737Z,22.41
2018-06-15T04:29:46.905Z,22.70
2018-06-15T04:32:16.198Z,22.66
2018-06-15T04:34:45.291Z,22.50
2018-06-15T04:37:14.438Z,22.09
2018-06-15T04:39:45.012Z,21.80
2018-06-15T04:42:14.098Z,21.59
2018-06-15T04:45:46.217Z,21.44
2018-06-15T04:48:15.136Z,21.39
2018-06-15T04:50:44.262Z,21.30
2018-06-15T04:53:13.745Z,21.26
2018-06-15T04:55:42.916Z,21.51
2018-06-15T04:58:12.135Z,21.98
2018-06-15T05:00:41.411Z,22.44
2018-06-15T05:03:14.068Z,22.85
2018-06-15T05:05:44.642Z,23.49
2018-06-15T05:08:13.662Z,24.10
2018-06-15T05:10:42.830Z,24.56
2018-06-15T05:13:12.288Z,24.76
2018-06-15T05:15:41.553Z,25.04
2018-06-15T05:18:10.680Z,25.39
2018-06-15T05:20:39.861Z,25.48
2018-06-15T05:23:09.042Z,25.79
2018-06-15T05:25:38.150Z,25.83
2018-06-15T05:28:07.318Z,26.03
2018-06-15T05:30:36.261Z,26.20
2018-06-15T05:33:05.336Z,26.40
2018-06-15T05:35:34.254Z,26.88
2018-06-15T05:38:03.135Z,27.26
2018-06-15T05:40:32.191Z,27.27
2018-06-15T05:43:01.407Z,26.89
2018-06-15T05:45:30.561Z,26.94
2018-06-15T05:47:59.646Z,27.31
2018-06-15T05:50:28.804Z,27.63
2018-06-15T05:52:57.742Z,27.05
2018-06-15T05:55:26.953Z,27.33
2018-06-15T05:57:56.803Z,27.43
2018-06-15T06:00:25.888Z,27.04
2018-06-15T06:02:54.928Z,26.17
2018-06-15T06:05:24.025Z,26.37
2018-06-15T06:07:53.311Z,27.03
2018-06-15T06:10:22.500Z,27.84
2018-06-15T06:12:51.575Z,28.02
2018-06-15T06:15:20.697Z,28.06
2018-06-15T06:17:49.791Z,27.29
2018-06-15T06:20:18.958Z,28.05
2018-06-15T06:22:48.036Z,28.44
2018-06-15T06:25:17.043Z,27.88
2018-06-15T06:27:46.052Z,27.42
2018-06-15T06:30:15.179Z,27.08
2018-06-15T06:32:44.401Z,26.19
2018-06-15T06:35:13.438Z,26.33
2018-06-15T06:37:42.671Z,24.83
2018-06-15T06:40:11.729Z,25.29
2018-06-15T06:42:41.031Z,25.20
2018-06-15T06:45:10.193Z,25.18
2018-06-15T06:47:39.220Z,25.52
2018-06-15T06:50:08.369Z,25.42
2018-06-15T06:52:37.456Z,25.49
2018-06-15T06:55:06.594Z,25.86
2018-06-15T06:57:35.707Z,26.06
2018-06-15T07:00:05.120Z,26.17
2018-06-15T07:02:34.259Z,26.08
2018-06-15T07:05:03.385Z,26.33
2018-06-15T07:07:32.535Z,26.70
2018-06-15T07:10:01.557Z,26.69
2018-06-15T07:12:30.692Z,26.81
2018-06-15T07:14:59.816Z,26.90
2018-06-15T07:17:29.000Z,26.96
2018-06-15T07:19:58.088Z,27.09
2018-06-15T07:22:27.244Z,27.39
2018-06-15T07:24:56.296Z,27.50
2018-06-15T07:27:25.379Z,27.52
2018-06-15T07:29:54.558Z,27.38
2018-06-15T07:32:23.690Z,27.59
2018-06-15T07:34:52.908Z,27.88
2018-06-15T07:37:22.128Z,27.80
2018-06-15T07:39:51.302Z,27.10
2018-06-15T07:42:20.876Z,27.23
2018-06-15T07:44:49.952Z,27.81
2018-06-15T07:47:19.100Z,27.05
2018-06-15T07:49:48.456Z,26.73
2018-06-15T07:52:17.929Z,26.93
2018-06-15T11:46:24.284Z,29.48
2018-06-15T11:49:10.723Z,29.18
2018-06-15T11:51:41.994Z,28.95
2018-06-15T11:54:11.365Z,28.71
2018-06-15T11:56:40.711Z,28.70
2018-06-15T11:59:10.382Z,28.68
2018-06-15T12:01:39.851Z,28.60
2018-06-15T12:04:09.225Z,28.49
2018-06-15T12:06:39.136Z,28.30
2018-06-15T12:09:16.505Z,28.32
2018-06-15T12:11:47.234Z,28.28
2018-06-15T12:14:16.488Z,28.12
2018-06-15T12:16:45.799Z,27.50
2018-06-15T12:19:15.324Z,27.29
2018-06-15T13:29:25.690Z,25.69
2018-06-15T13:31:55.042Z,25.35
2018-06-15T13:34:24.267Z,24.83
2018-06-15T13:36:53.823Z,24.65
2018-06-15T13:39:23.332Z,24.45
2018-06-15T13:47:37.789Z,23.65
2018-06-15T13:57:33.436Z,22.32
2018-06-15T15:00:38.154Z,20.45
2018-06-15T15:25:06.416Z,20.23
2018-06-15T15:27:35.734Z,20.21
2018-06-15T15:30:04.974Z,20.22
2018-06-15T15:32:34.201Z,20.18
2018-06-15T15:35:03.204Z,20.24
2018-06-15T15:37:32.362Z,20.26
2018-06-15T15:40:01.384Z,20.35
2018-06-15T15:42:30.401Z,20.46
2018-06-15T15:44:59.408Z,20.50
2018-06-15T15:47:28.840Z,20.63
2018-06-15T15:49:58.066Z,20.53
2018-06-15T15:52:27.198Z,20.46
2018-06-15T15:54:56.672Z,20.48
2018-06-15T15:57:25.677Z,20.46
2018-06-15T15:59:54.783Z,20.52
2018-06-15T16:02:24.177Z,20.65
2018-06-15T16:04:53.145Z,20.75
2018-06-15T16:07:22.252Z,20.83
2018-06-15T16:09:52.066Z,20.99
2018-06-15T16:12:21.279Z,21.10
2018-06-15T16:14:58.136Z,21.29
2018-06-15T16:17:27.371Z,21.39
2018-06-15T16:19:56.638Z,21.38
2018-06-15T16:22:26.268Z,21.45
2018-06-15T16:24:55.408Z,21.63
2018-06-15T16:27:24.480Z,21.68
2018-06-15T16:29:53.559Z,21.71
2018-06-15T16:32:22.657Z,21.77
2018-06-15T16:34:51.639Z,21.73
2018-06-15T16:37:21.322Z,21.83
2018-06-15T16:39:50.451Z,21.81
2018-06-15T16:42:19.637Z,21.82
2018-06-15T16:44:49.108Z,21.76
2018-06-15T16:47:18.485Z,21.78
2018-06-15T16:49:47.536Z,21.76
2018-06-15T16:52:17.056Z,21.68
2018-06-15T16:54:47.160Z,21.78
2018-06-15T16:57:17.651Z,21.73
2018-06-15T16:59:46.760Z,21.69
2018-06-15T17:02:15.780Z,21.67
2018-06-15T17:04:44.980Z,21.67
2018-06-15T17:07:14.201Z,21.60
2018-06-15T17:09:43.316Z,21.57
2018-06-15T17:12:12.487Z,21.54
2018-06-15T17:14:41.564Z,21.42
2018-06-15T17:17:10.749Z,21.23
2018-06-15T17:19:40.009Z,21.18
2018-06-15T17:22:09.214Z,20.96
2018-06-15T17:24:38.239Z,20.88
2018-06-15T17:27:07.557Z,20.93
2018-06-15T17:29:36.696Z,20.97
2018-06-15T17:32:05.792Z,21.02
2018-06-15T17:34:35.038Z,21.04
2018-06-15T17:37:04.150Z,21.10
2018-06-15T17:39:33.325Z,21.16
2018-06-15T17:42:02.451Z,21.10
2018-06-15T17:44:31.689Z,21.03
2018-06-15T17:47:00.643Z,21.02
2018-06-15T17:49:29.907Z,20.86
2018-06-15T17:51:59.213Z,20.83
2018-06-15T17:54:28.455Z,20.90
2018-06-15T17:56:57.607Z,20.89
2018-06-15T17:59:26.671Z,20.93
2018-06-15T18:01:55.815Z,20.90
2018-06-15T18:04:25.527Z,20.90
2018-06-15T18:06:54.620Z,20.85
2018-06-15T18:09:23.841Z,20.82
2018-06-15T18:11:53.024Z,20.74
2018-06-15T18:14:22.147Z,20.74
2018-06-15T18:16:51.221Z,20.67
2018-06-15T18:19:20.396Z,20.65
2018-06-15T18:21:49.509Z,20.63
2018-06-15T18:24:18.626Z,20.56
2018-06-15T18:26:47.778Z,20.51
2018-06-15T18:29:16.874Z,20.42
2018-06-15T18:31:45.991Z,20.34
2018-06-15T18:34:16.155Z,20.24
2018-06-15T18:36:45.252Z,20.28
2018-06-15T18:39:15.283Z,20.32
2018-06-15T18:41:45.064Z,20.26
2018-06-15T18:44:14.201Z,20.26
2018-06-15T18:46:43.245Z,20.29
2018-06-15T18:49:12.403Z,20.35
2018-06-15T18:51:41.444Z,20.36
2018-06-15T18:55:13.585Z,20.24
2018-06-15T18:57:48.679Z,20.31
2018-06-15T19:00:21.885Z,20.32
2018-06-15T19:02:51.019Z,20.36
2018-06-15T19:05:21.044Z,20.35
2018-06-15T19:07:50.269Z,20.46
2018-06-15T19:10:20.040Z,20.46
2018-06-15T19:12:50.416Z,20.39
2018-06-15T19:15:19.477Z,20.32
2018-06-15T19:17:48.556Z,20.22
2018-06-15T19:20:17.809Z,20.20
2018-06-15T19:22:47.058Z,20.20
2018-06-15T19:25:16.120Z,20.14
2018-06-15T19:27:45.159Z,20.13
2018-06-15T19:30:14.298Z,20.03
2018-06-15T19:32:43.341Z,20.00
2018-06-15T19:35:12.541Z,19.88
2018-06-15T19:37:41.727Z,19.90
2018-06-15T19:40:10.917Z,19.86
2018-06-15T19:42:40.097Z,19.82
2018-06-15T19:46:38.389Z,19.78
2018-06-15T19:49:07.428Z,19.87
2018-06-15T19:51:36.679Z,19.97
2018-06-15T19:54:05.855Z,19.98
2018-06-15T19:56:34.877Z,20.01
2018-06-15T19:59:04.252Z,20.03
2018-06-15T20:01:33.621Z,20.01
2018-06-15T20:04:02.809Z,19.93
2018-06-15T20:06:32.217Z,19.93
2018-06-15T20:09:01.362Z,19.91
2018-06-15T20:11:30.424Z,19.89
2018-06-15T20:13:59.921Z,19.95
2018-06-15T20:16:29.354Z,19.96
2018-06-15T20:18:58.615Z,19.90
2018-06-15T20:21:27.634Z,19.88
2018-06-15T20:23:56.731Z,19.86
2018-06-15T20:26:25.804Z,19.76
2018-06-15T20:28:54.849Z,19.68
2018-06-15T20:31:23.945Z,19.61
2018-06-15T20:33:53.410Z,19.57
2018-06-15T20:36:22.705Z,19.52
2018-06-15T20:38:51.834Z,19.52
2018-06-15T20:41:20.946Z,19.49
2018-06-15T20:45:19.652Z,19.48
2018-06-15T20:47:48.754Z,19.42
2018-06-15T20:50:17.802Z,19.44
2018-06-15T20:52:46.831Z,19.43
2018-06-15T20:55:15.826Z,19.40
2018-06-15T20:57:44.775Z,19.43
2018-06-15T21:00:13.973Z,19.45
2018-06-15T21:02:43.000Z,19.47
2018-06-15T21:05:12.056Z,19.46
2018-06-15T21:07:42.030Z,19.39
2018-06-15T21:10:11.247Z,19.31
2018-06-15T21:12:40.297Z,19.18
2018-06-15T21:15:09.977Z,19.10
2018-06-15T21:17:38.878Z,19.08
2018-06-15T21:20:08.146Z,19.05
2018-06-15T21:22:37.141Z,19.11
2018-06-15T21:25:06.344Z,19.06
2018-06-15T21:27:35.314Z,19.08
2018-06-15T21:30:04.529Z,19.24
2018-06-15T21:32:33.702Z,19.36
2018-06-15T21:35:02.849Z,19.38
2018-06-15T21:37:32.102Z,19.32
2018-06-15T21:40:01.221Z,19.28
2018-06-15T21:42:30.278Z,19.23
2018-06-15T21:44:59.494Z,19.20
2018-06-15T21:47:28.520Z,19.17
2018-06-15T21:49:57.648Z,19.14
2018-06-15T21:52:26.688Z,19.06
2018-06-15T21:54:55.819Z,19.03
2018-06-15T21:57:25.355Z,19.07
2018-06-15T21:59:54.408Z,19.06
2018-06-15T22:02:23.393Z,18.99
2018-06-15T22:04:52.431Z,18.93
2018-06-15T22:07:21.598Z,18.88
2018-06-15T22:09:50.705Z,18.81
2018-06-15T22:12:19.875Z,18.87
2018-06-15T22:14:48.963Z,18.79
2018-06-15T22:17:18.969Z,18.69
2018-06-15T22:19:48.922Z,18.74
2018-06-15T22:22:19.187Z,18.64
2018-06-15T22:24:51.946Z,18.68
2018-06-15T22:27:21.647Z,18.68
2018-06-15T22:29:53.107Z,18.68
2018-06-15T22:32:22.319Z,18.68
2018-06-15T22:34:51.319Z,18.72
2018-06-15T22:37:20.449Z,18.76
2018-06-15T22:39:55.206Z,18.66
2018-06-15T22:42:25.110Z,18.60
2018-06-15T22:44:54.452Z,18.56
2018-06-15T22:47:23.558Z,18.55
2018-06-15T22:49:52.590Z,18.65
2018-06-15T22:52:21.705Z,18.66
2018-06-15T22:54:51.901Z,18.63
2018-06-15T22:57:20.877Z,18.52
2018-06-15T22:59:49.997Z,18.46
2018-06-15T23:02:19.141Z,18.41
2018-06-15T23:04:48.499Z,18.40
2018-06-15T23:07:17.600Z,18.32
2018-06-15T23:09:47.031Z,18.43
2018-06-15T23:12:16.107Z,18.53
2018-06-15T23:14:45.175Z,18.47
2018-06-15T23:17:14.308Z,18.53
2018-06-15T23:19:43.327Z,18.53
2018-06-15T23:22:12.374Z,18.52
2018-06-15T23:24:41.367Z,18.55
2018-06-15T23:27:10.467Z,18.60
2018-06-15T23:29:39.418Z,18.59
2018-06-15T23:32:08.456Z,18.55
2018-06-15T23:34:37.636Z,18.68
2018-06-15T23:37:06.481Z,18.65
2018-06-15T23:39:35.525Z,18.62
2018-06-15T23:42:04.653Z,18.66
2018-06-15T23:44:33.724Z,18.72
2018-06-15T23:47:02.815Z,18.82
2018-06-15T23:49:31.777Z,18.93
2018-06-15T23:52:00.723Z,18.93
2018-06-15T23:54:29.885Z,18.92
2018-06-15T23:56:59.045Z,18.96
2018-06-15T23:59:28.009Z,19.02
